CheckWX is a tool to help pilots better visualize weather data.  It is not intended as a substitute for an official pre-flight weather briefing.

13:03:06 UTC

LEBA METAR
Córdoba Airport
Córdoba, Spain
Current

33 mins ago

LEBA 211230Z 03005KT 010V140 4000 BR SCT008 BKN013 BKN018 12/12 Q1009
Observed
Nov-21 @ 12:30 UTC
Wind
  • 030° at 5 KTS
Visibility
4,000 meters
Flight Rules
IFR
Conditions
Mist
Cloud Levels
  • Scattered at 800' AGL
  • Broken at 1,300' AGL
  • Broken at 1,800' AGL
Temperature
12°C / 54°F
Dewpoint
12°C / 54°F
Humidity
100%
Altimeter
29.79" Hg
Pressure
1008.92 hPa
Previous

1 hour ago

LEBA 211200Z 07004KT 4000 BR FEW004 OVC011 12/11 Q1010
Observed
Nov-21 @ 12:00 UTC
Wind
  • 070° at 4 KTS
Visibility
4,000 meters
Flight Rules
IFR
Conditions
Mist
Cloud Levels
  • Few at 400' AGL
  • Overcast at 1,100' AGL
Temperature
12°C / 54°F
Dewpoint
11°C / 52°F
Humidity
94%
Altimeter
29.82" Hg
Pressure
1009.92 hPa
Previous

2 hours ago

LEBA 211130Z 08004KT 4000 BR FEW004 OVC011 12/11 Q1010
Observed
Nov-21 @ 11:30 UTC
Wind
  • 080° at 4 KTS
Visibility
4,000 meters
Flight Rules
IFR
Conditions
Mist
Cloud Levels
  • Few at 400' AGL
  • Overcast at 1,100' AGL
Temperature
12°C / 54°F
Dewpoint
11°C / 52°F
Humidity
94%
Altimeter
29.82" Hg
Pressure
1009.92 hPa